Alexander, Illinois
Current Conditions -  °F | °C
As of 11:15 PM on Friday 19 Dec 2014 (Local Time) from KIJX Reporting Station
Overcast Overcast  
Wind Chill: 34°   Ceiling: 4800
Heat Index: 34°   Visibility: 7mi
Dew Point: 29°   Wind: 3mph
Humidity: 82%   Direction: 140°SE
Pressure: 30.26"   Gusts: NA
Location:  39.72°N, 90.04°W
Report Text: KIJX 200515Z AUTO 14003KT 7SM OVC048 01/M02 A3026 RMK AO2 T00101018
Loading
Personal Weather Stations






























Interactive Weather Map New forecast layout! Learn more

10-Day Weather Forecast

Advertisements
Track Severe Weather on mobile